In Rescue
 
Open Full Screen Window  High Contrast Mode
Wind Gusting 00 knots
06
November 14, 2019 2:29 PM EST
Weather Information
Wind Direction
  220 °
Wind Speed
  06 kt (7 mph)
Wind Gust
  00 kt (0 mph)
Altimeter
30.06 in
Visibility
10 SM
Temperature
-01° C
30° F
Dewpoint
-04° C
25° F
Humidity
80%
Sky Condition
Overcast @ 3,300 ft
VFR

METAR KPZQ 141929Z AUTO 22006KT 10SM OVC033 M01/M04 A3006 RMK AO2 T10111040

FAA Disclaimer: The data displayed is for advisory purposes only and is not to be used for flight planning or operations.